Aeroporto :
LOGIN :

Iscrizione | Disclaimer

   EN    FR    IT 

 










Sommario :    VFR   VFR Marginale   IFR   IFR Intensivo   IFR Molto Intensivo
Visibilità : 
Base nubi : 
>= 8 km
>= 3000ft
5 / 8 km
1000 / 3000 ft
1500m / 5 km
500 / 1000 ft
800 / 1500m
200 / 500 ft
< 800m
< 200 ft
Simboli :   Temporali  Nebbia  Neve Forte  Precipitazioni Forti  Vento > 20 kt
SIGMETs :   Varie  Temporali  Ghiacco  Turbolenza  Onda orograficha  Ceneri Vulcaniche






- Altitudine del aeroporto : 1071 ft
- Codice IATA : LWO


UKLL - L'viv

ULTIMO METAR :
  • 130800Z 14008MPS 9999 OVC004 01/M00 Q0999 R13/D NOSIG

METARs OBSOLETI :
  • 130730Z 15006MPS 9000 OVC004 01/M00 Q0999 R13/D NOSIG
  • 130700Z 14007MPS 9000 OVC004 01/M01 Q1000 R13/D NOSIG
  • 130630Z 14007MPS 9000 OVC004 01/M01 Q1000 R13/D NOSIG
  • 130600Z 15008MPS 9000 OVC004 01/M01 Q1000 R13/811070 NOSIG
  • 130548Z 14007MPS 9000 OVC004 01/M01 Q1000 R13/811070 NOSIG
  • 130530Z 14007MPS 9000 OVC005 01/M00 Q1001 R13/811070 NOSIG

TAF TAF UKLL
Valido dal 13 a 06 ore il 14 a 06 ore UTC


130506Z 1306/1406 14006MPS 5000 BR OVC005 TX05/1312Z TN01/1405Z
TEMPO 1306/1309 16008G14MPS 2100 BR OVC003
BECMG 1309/1310 SCT003 OVC007
BECMG 1315/1317 2100 BR
TEMPO 1317/1406 0400 FG VV002



MetMap, La meteo Aeronautica in un colpo d'occhio ! - Copyright ORBIFLY Dicembre 2007 - Disclaimer

ORBIFLY MET'MAP TEAM :

Programmazione e sviluppo : Alexandra Zaïnal
Concezione : Baudouin d'Aumeries
Aiuto per la programmazione : Marc-Olivier Méhu
Supporto tecnico e logistico : Manuel Goepfert
Aiuto per la traduzione : Arnaldo La Scala

Contatto : metmap@orbifly.com




FONTI E CREDITI :

   NOAA